sensor_id;sensor_type;location;lat;lon;timestamp;P1;durP1;ratioP1;P2;durP2;ratioP2
78873;SDS011;68250;43.514;1.494;2023-03-01T00:01:28;17.80;;;9.10;;
78873;SDS011;68250;43.514;1.494;2023-03-01T00:03:55;21.15;;;9.15;;
78873;SDS011;68250;43.514;1.494;2023-03-01T00:06:21;18.13;;;8.68;;
78873;SDS011;68250;43.514;1.494;2023-03-01T00:08:47;18.87;;;8.90;;
78873;SDS011;68250;43.514;1.494;2023-03-01T00:13:46;18.08;;;8.98;;
78873;SDS011;68250;43.514;1.494;2023-03-01T00:16:14;17.83;;;8.90;;
78873;SDS011;68250;43.514;1.494;2023-03-01T00:18:47;17.75;;;8.75;;
78873;SDS011;68250;43.514;1.494;2023-03-01T00:21:12;17.77;;;8.52;;
78873;SDS011;68250;43.514;1.494;2023-03-01T00:23:38;17.77;;;8.33;;
78873;SDS011;68250;43.514;1.494;2023-03-01T00:26:09;17.85;;;8.93;;
78873;SDS011;68250;43.514;1.494;2023-03-01T00:28:36;17.90;;;8.90;;
78873;SDS011;68250;43.514;1.494;2023-03-01T00:31:03;17.83;;;8.88;;
78873;SDS011;68250;43.514;1.494;2023-03-01T00:33:32;16.93;;;8.17;;
78873;SDS011;68250;43.514;1.494;2023-03-01T00:35:58;16.65;;;8.23;;
78873;SDS011;68250;43.514;1.494;2023-03-01T00:38:24;16.75;;;8.68;;
78873;SDS011;68250;43.514;1.494;2023-03-01T00:40:50;17.57;;;8.67;;
78873;SDS011;68250;43.514;1.494;2023-03-01T00:43:15;15.77;;;8.57;;
78873;SDS011;68250;43.514;1.494;2023-03-01T00:45:41;16.42;;;8.50;;
78873;SDS011;68250;43.514;1.494;2023-03-01T00:48:06;18.67;;;9.17;;
78873;SDS011;68250;43.514;1.494;2023-03-01T00:50:32;21.10;;;10.10;;
78873;SDS011;68250;43.514;1.494;2023-03-01T00:52:58;16.20;;;8.57;;
78873;SDS011;68250;43.514;1.494;2023-03-01T00:55:23;16.87;;;8.57;;
78873;SDS011;68250;43.514;1.494;2023-03-01T00:57:49;15.40;;;8.43;;
78873;SDS011;68250;43.514;1.494;2023-03-01T01:00:15;18.48;;;8.52;;
78873;SDS011;68250;43.514;1.494;2023-03-01T01:02:41;22.50;;;11.07;;
78873;SDS011;68250;43.514;1.494;2023-03-01T01:05:07;18.58;;;9.10;;
78873;SDS011;68250;43.514;1.494;2023-03-01T01:07:33;16.43;;;8.83;;
78873;SDS011;68250;43.514;1.494;2023-03-01T01:09:58;22.35;;;11.43;;
78873;SDS011;68250;43.514;1.494;2023-03-01T01:12:24;22.93;;;9.63;;
78873;SDS011;68250;43.514;1.494;2023-03-01T01:14:50;22.27;;;10.52;;
78873;SDS011;68250;43.514;1.494;2023-03-01T01:17:15;22.05;;;11.10;;
78873;SDS011;68250;43.514;1.494;2023-03-01T01:19:41;21.83;;;11.07;;
78873;SDS011;68250;43.514;1.494;2023-03-01T01:22:06;16.77;;;8.37;;
78873;SDS011;68250;43.514;1.494;2023-03-01T01:24:32;16.30;;;8.70;;
78873;SDS011;68250;43.514;1.494;2023-03-01T01:26:58;19.00;;;8.47;;
78873;SDS011;68250;43.514;1.494;2023-03-01T01:29:23;19.38;;;8.68;;
78873;SDS011;68250;43.514;1.494;2023-03-01T01:31:49;18.23;;;9.33;;
78873;SDS011;68250;43.514;1.494;2023-03-01T01:34:16;13.67;;;6.87;;
78873;SDS011;68250;43.514;1.494;2023-03-01T01:36:43;16.50;;;7.65;;
78873;SDS011;68250;43.514;1.494;2023-03-01T01:39:09;16.05;;;8.02;;
78873;SDS011;68250;43.514;1.494;2023-03-01T01:41:38;14.37;;;7.43;;
78873;SDS011;68250;43.514;1.494;2023-03-01T01:44:15;16.17;;;7.65;;
78873;SDS011;68250;43.514;1.494;2023-03-01T01:46:44;17.08;;;8.20;;
78873;SDS011;68250;43.514;1.494;2023-03-01T01:51:47;16.13;;;7.95;;
78873;SDS011;68250;43.514;1.494;2023-03-01T01:54:23;14.90;;;7.63;;
78873;SDS011;68250;43.514;1.494;2023-03-01T01:56:55;15.35;;;7.93;;
78873;SDS011;68250;43.514;1.494;2023-03-01T01:59:23;18.42;;;9.25;;
78873;SDS011;68250;43.514;1.494;2023-03-01T02:01:53;18.33;;;8.57;;
78873;SDS011;68250;43.514;1.494;2023-03-01T02:04:18;15.65;;;7.85;;
78873;SDS011;68250;43.514;1.494;2023-03-01T02:06:48;15.63;;;7.53;;
78873;SDS011;68250;43.514;1.494;2023-03-01T02:09:17;16.00;;;7.97;;
78873;SDS011;68250;43.514;1.494;2023-03-01T02:11:44;17.88;;;8.95;;
78873;SDS011;68250;43.514;1.494;2023-03-01T02:14:09;21.67;;;8.73;;
78873;SDS011;68250;43.514;1.494;2023-03-01T02:16:35;21.00;;;9.25;;
78873;SDS011;68250;43.514;1.494;2023-03-01T02:19:01;21.57;;;9.97;;
78873;SDS011;68250;43.514;1.494;2023-03-01T02:21:46;29.77;;;11.25;;
78873;SDS011;68250;43.514;1.494;2023-03-01T02:24:30;25.42;;;9.70;;
78873;SDS011;68250;43.514;1.494;2023-03-01T02:27:00;22.07;;;9.93;;
78873;SDS011;68250;43.514;1.494;2023-03-01T02:29:26;25.15;;;9.65;;
78873;SDS011;68250;43.514;1.494;2023-03-01T02:31:52;22.88;;;9.30;;
78873;SDS011;68250;43.514;1.494;2023-03-01T02:34:22;19.70;;;9.05;;
78873;SDS011;68250;43.514;1.494;2023-03-01T02:37:12;19.63;;;8.93;;
78873;SDS011;68250;43.514;1.494;2023-03-01T02:39:41;20.33;;;9.05;;
78873;SDS011;68250;43.514;1.494;2023-03-01T02:42:11;18.27;;;8.88;;
78873;SDS011;68250;43.514;1.494;2023-03-01T02:44:38;20.20;;;9.27;;
78873;SDS011;68250;43.514;1.494;2023-03-01T02:47:05;19.63;;;9.00;;
78873;SDS011;68250;43.514;1.494;2023-03-01T02:49:32;20.73;;;9.00;;
78873;SDS011;68250;43.514;1.494;2023-03-01T02:54:31;18.07;;;8.63;;
78873;SDS011;68250;43.514;1.494;2023-03-01T02:57:02;16.35;;;8.50;;
78873;SDS011;68250;43.514;1.494;2023-03-01T02:59:29;17.75;;;8.90;;
78873;SDS011;68250;43.514;1.494;2023-03-01T03:01:56;18.80;;;9.53;;
78873;SDS011;68250;43.514;1.494;2023-03-01T03:04:22;20.73;;;9.70;;
78873;SDS011;68250;43.514;1.494;2023-03-01T03:06:48;20.30;;;9.10;;
78873;SDS011;68250;43.514;1.494;2023-03-01T03:09:16;18.65;;;8.82;;
78873;SDS011;68250;43.514;1.494;2023-03-01T03:11:42;16.95;;;8.90;;
78873;SDS011;68250;43.514;1.494;2023-03-01T03:14:11;17.90;;;9.07;;
78873;SDS011;68250;43.514;1.494;2023-03-01T03:16:41;19.75;;;8.98;;
78873;SDS011;68250;43.514;1.494;2023-03-01T03:19:08;16.98;;;8.63;;
78873;SDS011;68250;43.514;1.494;2023-03-01T03:21:33;16.95;;;8.80;;
78873;SDS011;68250;43.514;1.494;2023-03-01T03:23:59;18.67;;;9.00;;
78873;SDS011;68250;43.514;1.494;2023-03-01T03:26:25;18.92;;;8.95;;
78873;SDS011;68250;43.514;1.494;2023-03-01T03:28:51;17.40;;;8.70;;
78873;SDS011;68250;43.514;1.494;2023-03-01T03:31:16;18.35;;;9.32;;
78873;SDS011;68250;43.514;1.494;2023-03-01T03:33:42;15.97;;;8.37;;
78873;SDS011;68250;43.514;1.494;2023-03-01T03:36:08;18.63;;;8.55;;
78873;SDS011;68250;43.514;1.494;2023-03-01T03:38:38;20.30;;;9.38;;
78873;SDS011;68250;43.514;1.494;2023-03-01T03:41:05;17.45;;;8.40;;
78873;SDS011;68250;43.514;1.494;2023-03-01T03:43:33;17.98;;;8.90;;
78873;SDS011;68250;43.514;1.494;2023-03-01T03:46:00;16.58;;;8.85;;
78873;SDS011;68250;43.514;1.494;2023-03-01T03:48:31;16.70;;;8.60;;
78873;SDS011;68250;43.514;1.494;2023-03-01T03:50:58;18.73;;;9.23;;
78873;SDS011;68250;43.514;1.494;2023-03-01T03:53:24;20.25;;;9.32;;
78873;SDS011;68250;43.514;1.494;2023-03-01T03:55:50;18.93;;;9.03;;
78873;SDS011;68250;43.514;1.494;2023-03-01T03:58:17;18.85;;;9.68;;
78873;SDS011;68250;43.514;1.494;2023-03-01T04:00:45;18.58;;;9.23;;
78873;SDS011;68250;43.514;1.494;2023-03-01T04:03:12;17.25;;;8.25;;
78873;SDS011;68250;43.514;1.494;2023-03-01T04:05:39;19.55;;;8.73;;
78873;SDS011;68250;43.514;1.494;2023-03-01T04:08:06;17.90;;;8.60;;
78873;SDS011;68250;43.514;1.494;2023-03-01T04:10:45;17.52;;;8.48;;
78873;SDS011;68250;43.514;1.494;2023-03-01T04:13:13;17.08;;;8.45;;
78873;SDS011;68250;43.514;1.494;2023-03-01T04:15:40;16.58;;;8.48;;
78873;SDS011;68250;43.514;1.494;2023-03-01T04:18:08;18.13;;;8.60;;
78873;SDS011;68250;43.514;1.494;2023-03-01T04:20:37;16.37;;;8.47;;
78873;SDS011;68250;43.514;1.494;2023-03-01T04:23:06;19.23;;;8.75;;
78873;SDS011;68250;43.514;1.494;2023-03-01T04:25:39;16.58;;;8.23;;
78873;SDS011;68250;43.514;1.494;2023-03-01T04:28:06;17.25;;;8.00;;
78873;SDS011;68250;43.514;1.494;2023-03-01T04:30:32;17.30;;;8.23;;
78873;SDS011;68250;43.514;1.494;2023-03-01T04:33:08;17.77;;;8.47;;
78873;SDS011;68250;43.514;1.494;2023-03-01T04:35:35;16.60;;;8.05;;
78873;SDS011;68250;43.514;1.494;2023-03-01T04:38:01;16.95;;;7.65;;
78873;SDS011;68250;43.514;1.494;2023-03-01T04:40:27;17.27;;;8.27;;
78873;SDS011;68250;43.514;1.494;2023-03-01T04:42:53;19.57;;;8.43;;
78873;SDS011;68250;43.514;1.494;2023-03-01T04:45:19;17.30;;;8.38;;
78873;SDS011;68250;43.514;1.494;2023-03-01T04:47:45;17.10;;;8.10;;
78873;SDS011;68250;43.514;1.494;2023-03-01T04:50:12;17.27;;;7.90;;
78873;SDS011;68250;43.514;1.494;2023-03-01T04:52:41;16.55;;;8.15;;
78873;SDS011;68250;43.514;1.494;2023-03-01T04:55:07;15.97;;;8.00;;
78873;SDS011;68250;43.514;1.494;2023-03-01T04:57:33;20.60;;;9.95;;
78873;SDS011;68250;43.514;1.494;2023-03-01T04:59:59;19.55;;;8.15;;
78873;SDS011;68250;43.514;1.494;2023-03-01T05:02:24;16.10;;;8.37;;
78873;SDS011;68250;43.514;1.494;2023-03-01T05:04:50;20.13;;;9.90;;
78873;SDS011;68250;43.514;1.494;2023-03-01T05:07:16;19.83;;;10.30;;
78873;SDS011;68250;43.514;1.494;2023-03-01T05:09:47;18.67;;;9.75;;
78873;SDS011;68250;43.514;1.494;2023-03-01T05:12:14;15.52;;;8.00;;
78873;SDS011;68250;43.514;1.494;2023-03-01T05:14:40;16.00;;;7.17;;
78873;SDS011;68250;43.514;1.494;2023-03-01T05:17:06;14.98;;;7.35;;
78873;SDS011;68250;43.514;1.494;2023-03-01T05:19:32;15.48;;;7.50;;
78873;SDS011;68250;43.514;1.494;2023-03-01T05:21:58;14.63;;;7.05;;
78873;SDS011;68250;43.514;1.494;2023-03-01T05:24:29;20.75;;;9.30;;
78873;SDS011;68250;43.514;1.494;2023-03-01T05:26:56;16.05;;;7.90;;
78873;SDS011;68250;43.514;1.494;2023-03-01T05:29:22;16.25;;;7.65;;
78873;SDS011;68250;43.514;1.494;2023-03-01T05:31:55;16.33;;;8.18;;
78873;SDS011;68250;43.514;1.494;2023-03-01T05:34:26;14.60;;;6.90;;
78873;SDS011;68250;43.514;1.494;2023-03-01T05:36:59;16.58;;;7.80;;
78873;SDS011;68250;43.514;1.494;2023-03-01T05:39:25;15.93;;;7.65;;
78873;SDS011;68250;43.514;1.494;2023-03-01T05:41:53;14.65;;;7.70;;
78873;SDS011;68250;43.514;1.494;2023-03-01T05:44:19;16.58;;;7.30;;
78873;SDS011;68250;43.514;1.494;2023-03-01T05:46:45;16.80;;;7.70;;
78873;SDS011;68250;43.514;1.494;2023-03-01T05:49:11;17.65;;;7.70;;
78873;SDS011;68250;43.514;1.494;2023-03-01T05:51:38;16.75;;;7.55;;
78873;SDS011;68250;43.514;1.494;2023-03-01T05:54:04;15.27;;;7.80;;
78873;SDS011;68250;43.514;1.494;2023-03-01T05:56:33;16.47;;;7.60;;
78873;SDS011;68250;43.514;1.494;2023-03-01T05:59:00;16.48;;;7.72;;
78873;SDS011;68250;43.514;1.494;2023-03-01T06:01:25;17.55;;;7.93;;
78873;SDS011;68250;43.514;1.494;2023-03-01T06:03:51;16.23;;;7.73;;
78873;SDS011;68250;43.514;1.494;2023-03-01T06:06:17;16.75;;;7.65;;
78873;SDS011;68250;43.514;1.494;2023-03-01T06:08:43;15.82;;;8.07;;
78873;SDS011;68250;43.514;1.494;2023-03-01T06:11:08;15.43;;;7.72;;
78873;SDS011;68250;43.514;1.494;2023-03-01T06:13:34;14.10;;;7.33;;
78873;SDS011;68250;43.514;1.494;2023-03-01T06:16:00;16.35;;;8.45;;
78873;SDS011;68250;43.514;1.494;2023-03-01T06:18:25;16.77;;;8.00;;
78873;SDS011;68250;43.514;1.494;2023-03-01T06:20:54;17.30;;;8.17;;
78873;SDS011;68250;43.514;1.494;2023-03-01T06:23:20;17.95;;;8.90;;
78873;SDS011;68250;43.514;1.494;2023-03-01T06:25:46;17.58;;;8.68;;
78873;SDS011;68250;43.514;1.494;2023-03-01T06:28:12;17.80;;;8.67;;
78873;SDS011;68250;43.514;1.494;2023-03-01T06:30:38;19.52;;;8.27;;
78873;SDS011;68250;43.514;1.494;2023-03-01T06:33:03;16.80;;;8.18;;
78873;SDS011;68250;43.514;1.494;2023-03-01T06:35:29;17.40;;;8.10;;
78873;SDS011;68250;43.514;1.494;2023-03-01T06:37:56;15.90;;;8.38;;
78873;SDS011;68250;43.514;1.494;2023-03-01T06:40:22;19.23;;;9.20;;
78873;SDS011;68250;43.514;1.494;2023-03-01T06:42:48;18.20;;;9.23;;
78873;SDS011;68250;43.514;1.494;2023-03-01T06:45:15;25.52;;;12.55;;
78873;SDS011;68250;43.514;1.494;2023-03-01T06:47:41;38.95;;;18.00;;
78873;SDS011;68250;43.514;1.494;2023-03-01T06:50:07;26.87;;;13.07;;
78873;SDS011;68250;43.514;1.494;2023-03-01T06:52:33;27.52;;;12.25;;
78873;SDS011;68250;43.514;1.494;2023-03-01T06:54:59;23.63;;;11.85;;
78873;SDS011;68250;43.514;1.494;2023-03-01T06:57:25;23.87;;;11.40;;
78873;SDS011;68250;43.514;1.494;2023-03-01T06:59:50;24.85;;;13.38;;
78873;SDS011;68250;43.514;1.494;2023-03-01T07:02:16;23.88;;;12.35;;
78873;SDS011;68250;43.514;1.494;2023-03-01T07:04:42;25.27;;;12.50;;
78873;SDS011;68250;43.514;1.494;2023-03-01T07:07:08;24.55;;;12.45;;
78873;SDS011;68250;43.514;1.494;2023-03-01T07:09:33;26.87;;;13.17;;
78873;SDS011;68250;43.514;1.494;2023-03-01T07:11:59;26.10;;;13.00;;
78873;SDS011;68250;43.514;1.494;2023-03-01T07:14:25;23.23;;;11.13;;
78873;SDS011;68250;43.514;1.494;2023-03-01T07:16:51;21.88;;;11.43;;
78873;SDS011;68250;43.514;1.494;2023-03-01T07:19:17;20.40;;;11.00;;
78873;SDS011;68250;43.514;1.494;2023-03-01T07:21:43;22.88;;;11.45;;
78873;SDS011;68250;43.514;1.494;2023-03-01T07:24:08;24.67;;;12.27;;
78873;SDS011;68250;43.514;1.494;2023-03-01T07:26:34;26.10;;;12.95;;
78873;SDS011;68250;43.514;1.494;2023-03-01T07:29:00;22.75;;;10.48;;
78873;SDS011;68250;43.514;1.494;2023-03-01T07:31:26;21.48;;;9.70;;
78873;SDS011;68250;43.514;1.494;2023-03-01T07:33:54;20.20;;;9.55;;
78873;SDS011;68250;43.514;1.494;2023-03-01T07:36:21;21.93;;;11.60;;
78873;SDS011;68250;43.514;1.494;2023-03-01T07:38:48;47.22;;;19.95;;
78873;SDS011;68250;43.514;1.494;2023-03-01T07:41:13;24.70;;;11.37;;
78873;SDS011;68250;43.514;1.494;2023-03-01T07:43:39;37.38;;;15.60;;
78873;SDS011;68250;43.514;1.494;2023-03-01T07:46:04;28.77;;;13.47;;
78873;SDS011;68250;43.514;1.494;2023-03-01T07:48:31;33.38;;;14.80;;
78873;SDS011;68250;43.514;1.494;2023-03-01T07:51:00;30.52;;;15.52;;
78873;SDS011;68250;43.514;1.494;2023-03-01T07:53:27;35.17;;;14.63;;
78873;SDS011;68250;43.514;1.494;2023-03-01T07:56:00;32.53;;;16.13;;
78873;SDS011;68250;43.514;1.494;2023-03-01T07:58:29;29.58;;;15.02;;
78873;SDS011;68250;43.514;1.494;2023-03-01T08:00:55;32.30;;;16.93;;
78873;SDS011;68250;43.514;1.494;2023-03-01T08:03:20;40.80;;;17.90;;
78873;SDS011;68250;43.514;1.494;2023-03-01T08:05:46;29.30;;;14.90;;
78873;SDS011;68250;43.514;1.494;2023-03-01T08:08:11;30.33;;;15.00;;
78873;SDS011;68250;43.514;1.494;2023-03-01T08:10:37;29.45;;;14.77;;
78873;SDS011;68250;43.514;1.494;2023-03-01T08:13:03;32.27;;;15.53;;
78873;SDS011;68250;43.514;1.494;2023-03-01T08:15:28;32.93;;;15.70;;
78873;SDS011;68250;43.514;1.494;2023-03-01T08:17:54;36.15;;;16.73;;
78873;SDS011;68250;43.514;1.494;2023-03-01T08:20:19;32.83;;;14.37;;
78873;SDS011;68250;43.514;1.494;2023-03-01T08:22:45;39.75;;;17.13;;
78873;SDS011;68250;43.514;1.494;2023-03-01T08:25:11;29.20;;;13.53;;
78873;SDS011;68250;43.514;1.494;2023-03-01T08:27:36;24.20;;;12.23;;
78873;SDS011;68250;43.514;1.494;2023-03-01T08:30:02;22.35;;;11.25;;
78873;SDS011;68250;43.514;1.494;2023-03-01T08:32:28;19.03;;;10.03;;
78873;SDS011;68250;43.514;1.494;2023-03-01T08:34:54;17.27;;;9.20;;
78873;SDS011;68250;43.514;1.494;2023-03-01T08:37:19;15.23;;;7.77;;
78873;SDS011;68250;43.514;1.494;2023-03-01T08:39:45;12.83;;;7.20;;
78873;SDS011;68250;43.514;1.494;2023-03-01T08:42:11;14.75;;;7.47;;
78873;SDS011;68250;43.514;1.494;2023-03-01T08:44:37;12.57;;;6.93;;
78873;SDS011;68250;43.514;1.494;2023-03-01T08:47:02;17.02;;;8.65;;
78873;SDS011;68250;43.514;1.494;2023-03-01T08:49:29;17.23;;;8.80;;
78873;SDS011;68250;43.514;1.494;2023-03-01T08:51:57;13.63;;;7.10;;
78873;SDS011;68250;43.514;1.494;2023-03-01T08:54:23;15.65;;;7.90;;
78873;SDS011;68250;43.514;1.494;2023-03-01T08:56:48;17.77;;;8.80;;
78873;SDS011;68250;43.514;1.494;2023-03-01T08:59:15;15.77;;;7.70;;
78873;SDS011;68250;43.514;1.494;2023-03-01T09:01:42;15.10;;;7.93;;
78873;SDS011;68250;43.514;1.494;2023-03-01T09:04:08;15.20;;;8.40;;
78873;SDS011;68250;43.514;1.494;2023-03-01T09:06:34;17.02;;;8.93;;
78873;SDS011;68250;43.514;1.494;2023-03-01T09:09:00;15.60;;;8.20;;
78873;SDS011;68250;43.514;1.494;2023-03-01T09:11:27;14.98;;;7.45;;
78873;SDS011;68250;43.514;1.494;2023-03-01T09:13:53;16.97;;;6.40;;
78873;SDS011;68250;43.514;1.494;2023-03-01T09:16:19;11.80;;;5.63;;
78873;SDS011;68250;43.514;1.494;2023-03-01T09:18:50;13.32;;;6.38;;
78873;SDS011;68250;43.514;1.494;2023-03-01T09:21:17;13.40;;;7.07;;
78873;SDS011;68250;43.514;1.494;2023-03-01T09:23:44;14.57;;;6.95;;
78873;SDS011;68250;43.514;1.494;2023-03-01T09:26:15;12.02;;;6.60;;
78873;SDS011;68250;43.514;1.494;2023-03-01T09:28:44;13.55;;;7.00;;
78873;SDS011;68250;43.514;1.494;2023-03-01T09:31:10;11.35;;;6.13;;
78873;SDS011;68250;43.514;1.494;2023-03-01T09:33:40;14.07;;;6.77;;
78873;SDS011;68250;43.514;1.494;2023-03-01T09:36:07;13.77;;;6.68;;
78873;SDS011;68250;43.514;1.494;2023-03-01T09:38:35;11.18;;;5.80;;
78873;SDS011;68250;43.514;1.494;2023-03-01T09:41:01;10.83;;;6.10;;
78873;SDS011;68250;43.514;1.494;2023-03-01T09:43:32;13.27;;;6.68;;
78873;SDS011;68250;43.514;1.494;2023-03-01T09:46:06;13.30;;;6.80;;
78873;SDS011;68250;43.514;1.494;2023-03-01T09:48:41;13.93;;;6.72;;
78873;SDS011;68250;43.514;1.494;2023-03-01T09:51:18;12.40;;;6.60;;
78873;SDS011;68250;43.514;1.494;2023-03-01T09:53:52;15.75;;;7.20;;
78873;SDS011;68250;43.514;1.494;2023-03-01T09:56:22;12.23;;;6.97;;
78873;SDS011;68250;43.514;1.494;2023-03-01T09:58:59;13.50;;;7.10;;
78873;SDS011;68250;43.514;1.494;2023-03-01T10:01:44;13.45;;;7.03;;
78873;SDS011;68250;43.514;1.494;2023-03-01T10:09:58;14.07;;;6.82;;
78873;SDS011;68250;43.514;1.494;2023-03-01T10:12:32;11.50;;;6.27;;
78873;SDS011;68250;43.514;1.494;2023-03-01T10:15:04;11.90;;;6.88;;
78873;SDS011;68250;43.514;1.494;2023-03-01T10:20:21;15.05;;;7.75;;
78873;SDS011;68250;43.514;1.494;2023-03-01T10:22:47;15.07;;;7.70;;
78873;SDS011;68250;43.514;1.494;2023-03-01T10:25:15;18.60;;;8.13;;
78873;SDS011;68250;43.514;1.494;2023-03-01T10:27:52;15.15;;;8.57;;
78873;SDS011;68250;43.514;1.494;2023-03-01T10:30:21;20.52;;;9.27;;
78873;SDS011;68250;43.514;1.494;2023-03-01T10:32:52;16.23;;;8.10;;
78873;SDS011;68250;43.514;1.494;2023-03-01T10:35:23;13.13;;;7.68;;
78873;SDS011;68250;43.514;1.494;2023-03-01T10:38:05;14.17;;;7.40;;
78873;SDS011;68250;43.514;1.494;2023-03-01T10:40:33;14.18;;;7.60;;
78873;SDS011;68250;43.514;1.494;2023-03-01T10:43:01;20.17;;;10.10;;
78873;SDS011;68250;43.514;1.494;2023-03-01T10:50:31;15.17;;;7.37;;
78873;SDS011;68250;43.514;1.494;2023-03-01T10:53:00;16.45;;;7.25;;
78873;SDS011;68250;43.514;1.494;2023-03-01T10:55:35;12.18;;;5.88;;
78873;SDS011;68250;43.514;1.494;2023-03-01T10:58:21;11.73;;;6.23;;
78873;SDS011;68250;43.514;1.494;2023-03-01T11:00:55;13.52;;;6.25;;
78873;SDS011;68250;43.514;1.494;2023-03-01T11:03:29;11.05;;;5.70;;
78873;SDS011;68250;43.514;1.494;2023-03-01T11:08:35;10.48;;;5.00;;
78873;SDS011;68250;43.514;1.494;2023-03-01T11:11:25;11.13;;;5.60;;
78873;SDS011;68250;43.514;1.494;2023-03-01T11:14:03;18.42;;;9.45;;
78873;SDS011;68250;43.514;1.494;2023-03-01T11:16:37;10.25;;;5.15;;
78873;SDS011;68250;43.514;1.494;2023-03-01T11:19:25;11.20;;;5.38;;
78873;SDS011;68250;43.514;1.494;2023-03-01T11:24:22;9.27;;;5.40;;
78873;SDS011;68250;43.514;1.494;2023-03-01T11:26:59;9.15;;;4.68;;
78873;SDS011;68250;43.514;1.494;2023-03-01T11:31:56;9.27;;;4.60;;
78873;SDS011;68250;43.514;1.494;2023-03-01T11:34:35;9.30;;;4.60;;
78873;SDS011;68250;43.514;1.494;2023-03-01T11:37:08;9.13;;;5.20;;
78873;SDS011;68250;43.514;1.494;2023-03-01T11:42:42;8.27;;;4.60;;
78873;SDS011;68250;43.514;1.494;2023-03-01T11:45:14;9.30;;;4.60;;
78873;SDS011;68250;43.514;1.494;2023-03-01T11:47:56;9.50;;;4.80;;
78873;SDS011;68250;43.514;1.494;2023-03-01T11:50:46;8.52;;;4.63;;
78873;SDS011;68250;43.514;1.494;2023-03-01T11:56:10;13.32;;;5.15;;
78873;SDS011;68250;43.514;1.494;2023-03-01T12:20:40;8.90;;;4.90;;
78873;SDS011;68250;43.514;1.494;2023-03-01T12:29:34;9.57;;;5.20;;
78873;SDS011;68250;43.514;1.494;2023-03-01T12:43:06;10.27;;;4.97;;
78873;SDS011;68250;43.514;1.494;2023-03-01T12:50:59;9.57;;;5.18;;
78873;SDS011;68250;43.514;1.494;2023-03-01T12:53:34;8.75;;;4.90;;
78873;SDS011;68250;43.514;1.494;2023-03-01T12:56:08;9.60;;;5.10;;
78873;SDS011;68250;43.514;1.494;2023-03-01T13:04:07;8.70;;;4.93;;
78873;SDS011;68250;43.514;1.494;2023-03-01T13:06:46;9.65;;;5.00;;
78873;SDS011;68250;43.514;1.494;2023-03-01T13:09:29;8.98;;;5.28;;
78873;SDS011;68250;43.514;1.494;2023-03-01T13:12:02;10.48;;;5.10;;
78873;SDS011;68250;43.514;1.494;2023-03-01T13:16:56;9.27;;;5.70;;
78873;SDS011;68250;43.514;1.494;2023-03-01T13:19:23;9.67;;;5.20;;
78873;SDS011;68250;43.514;1.494;2023-03-01T13:21:50;10.25;;;5.13;;
78873;SDS011;68250;43.514;1.494;2023-03-01T13:24:26;9.13;;;5.03;;
78873;SDS011;68250;43.514;1.494;2023-03-01T13:32:27;8.93;;;5.10;;
78873;SDS011;68250;43.514;1.494;2023-03-01T13:34:58;8.98;;;4.90;;
78873;SDS011;68250;43.514;1.494;2023-03-01T13:37:38;9.60;;;5.38;;
78873;SDS011;68250;43.514;1.494;2023-03-01T13:40:05;10.93;;;5.47;;
78873;SDS011;68250;43.514;1.494;2023-03-01T13:42:54;8.27;;;4.53;;
78873;SDS011;68250;43.514;1.494;2023-03-01T13:45:34;9.75;;;4.82;;
78873;SDS011;68250;43.514;1.494;2023-03-01T13:48:03;8.88;;;5.20;;
78873;SDS011;68250;43.514;1.494;2023-03-01T13:50:38;8.38;;;4.63;;
78873;SDS011;68250;43.514;1.494;2023-03-01T13:53:12;9.25;;;4.70;;
78873;SDS011;68250;43.514;1.494;2023-03-01T13:55:43;9.03;;;4.57;;
78873;SDS011;68250;43.514;1.494;2023-03-01T13:58:44;9.45;;;4.50;;
78873;SDS011;68250;43.514;1.494;2023-03-01T14:01:26;10.18;;;4.75;;
78873;SDS011;68250;43.514;1.494;2023-03-01T14:03:53;11.35;;;5.00;;
78873;SDS011;68250;43.514;1.494;2023-03-01T14:06:20;9.52;;;4.65;;
78873;SDS011;68250;43.514;1.494;2023-03-01T14:08:48;8.90;;;4.97;;
78873;SDS011;68250;43.514;1.494;2023-03-01T14:14:11;7.75;;;4.63;;
78873;SDS011;68250;43.514;1.494;2023-03-01T14:17:04;12.23;;;4.57;;
78873;SDS011;68250;43.514;1.494;2023-03-01T14:19:54;8.48;;;4.53;;
78873;SDS011;68250;43.514;1.494;2023-03-01T14:22:22;8.63;;;4.90;;
78873;SDS011;68250;43.514;1.494;2023-03-01T14:24:55;7.90;;;4.82;;
78873;SDS011;68250;43.514;1.494;2023-03-01T14:27:38;8.18;;;4.90;;
78873;SDS011;68250;43.514;1.494;2023-03-01T14:30:10;7.93;;;4.82;;
78873;SDS011;68250;43.514;1.494;2023-03-01T14:32:40;8.68;;;4.88;;
78873;SDS011;68250;43.514;1.494;2023-03-01T14:35:22;8.90;;;4.77;;
78873;SDS011;68250;43.514;1.494;2023-03-01T14:37:49;9.98;;;4.70;;
78873;SDS011;68250;43.514;1.494;2023-03-01T14:40:34;9.43;;;4.70;;
78873;SDS011;68250;43.514;1.494;2023-03-01T14:43:01;8.88;;;4.70;;
78873;SDS011;68250;43.514;1.494;2023-03-01T14:45:36;10.90;;;5.18;;
78873;SDS011;68250;43.514;1.494;2023-03-01T14:48:02;9.17;;;4.73;;
78873;SDS011;68250;43.514;1.494;2023-03-01T14:50:30;9.32;;;4.95;;
78873;SDS011;68250;43.514;1.494;2023-03-01T14:53:05;9.82;;;5.07;;
78873;SDS011;68250;43.514;1.494;2023-03-01T14:55:40;8.30;;;4.90;;
78873;SDS011;68250;43.514;1.494;2023-03-01T14:58:13;11.23;;;5.43;;
78873;SDS011;68250;43.514;1.494;2023-03-01T15:00:54;9.50;;;4.80;;
78873;SDS011;68250;43.514;1.494;2023-03-01T15:03:27;8.18;;;4.40;;
78873;SDS011;68250;43.514;1.494;2023-03-01T15:05:57;9.43;;;5.20;;
78873;SDS011;68250;43.514;1.494;2023-03-01T15:08:24;8.57;;;5.05;;
78873;SDS011;68250;43.514;1.494;2023-03-01T15:10:58;8.35;;;4.88;;
78873;SDS011;68250;43.514;1.494;2023-03-01T15:13:41;9.87;;;5.00;;
78873;SDS011;68250;43.514;1.494;2023-03-01T15:16:19;9.40;;;4.78;;
78873;SDS011;68250;43.514;1.494;2023-03-01T15:18:51;9.25;;;4.95;;
78873;SDS011;68250;43.514;1.494;2023-03-01T15:21:24;8.38;;;4.47;;
78873;SDS011;68250;43.514;1.494;2023-03-01T15:23:56;8.57;;;4.73;;
78873;SDS011;68250;43.514;1.494;2023-03-01T15:26:45;10.23;;;5.03;;
78873;SDS011;68250;43.514;1.494;2023-03-01T15:29:24;8.68;;;4.72;;
78873;SDS011;68250;43.514;1.494;2023-03-01T15:34:56;10.07;;;5.00;;
78873;SDS011;68250;43.514;1.494;2023-03-01T15:37:39;9.10;;;4.83;;
78873;SDS011;68250;43.514;1.494;2023-03-01T15:40:21;9.07;;;5.18;;
78873;SDS011;68250;43.514;1.494;2023-03-01T15:42:49;10.93;;;4.97;;
78873;SDS011;68250;43.514;1.494;2023-03-01T15:47:46;8.23;;;4.63;;
78873;SDS011;68250;43.514;1.494;2023-03-01T15:50:18;10.53;;;5.40;;
78873;SDS011;68250;43.514;1.494;2023-03-01T15:52:46;10.18;;;5.80;;
78873;SDS011;68250;43.514;1.494;2023-03-01T15:55:23;9.68;;;5.35;;
78873;SDS011;68250;43.514;1.494;2023-03-01T15:57:58;9.30;;;4.78;;
78873;SDS011;68250;43.514;1.494;2023-03-01T16:00:26;10.13;;;5.57;;
78873;SDS011;68250;43.514;1.494;2023-03-01T16:02:51;8.75;;;5.18;;
78873;SDS011;68250;43.514;1.494;2023-03-01T16:07:50;9.65;;;5.82;;
78873;SDS011;68250;43.514;1.494;2023-03-01T16:10:17;9.85;;;5.75;;
78873;SDS011;68250;43.514;1.494;2023-03-01T16:12:43;10.38;;;5.45;;
78873;SDS011;68250;43.514;1.494;2023-03-01T16:15:20;8.87;;;4.97;;
78873;SDS011;68250;43.514;1.494;2023-03-01T16:17:50;11.43;;;5.70;;
78873;SDS011;68250;43.514;1.494;2023-03-01T16:20:17;8.77;;;5.38;;
78873;SDS011;68250;43.514;1.494;2023-03-01T16:22:43;9.60;;;5.90;;
78873;SDS011;68250;43.514;1.494;2023-03-01T16:25:09;10.13;;;5.57;;
78873;SDS011;68250;43.514;1.494;2023-03-01T16:27:38;9.27;;;5.78;;
78873;SDS011;68250;43.514;1.494;2023-03-01T16:30:07;11.20;;;5.28;;
78873;SDS011;68250;43.514;1.494;2023-03-01T16:32:37;11.03;;;5.73;;